Time;durP1;ratioP1;P1;durP2;ratioP2;P2;SDS_P1;SDS_P2;PMS_P1;PMS_P2;Temp;Humidity;BMP_temperature;BMP_pressure;BME280_temperature;BME280_humidity;BME280_pressure;Samples;Min_cycle;Max_cycle;Signal;HPM_P1;HPM_P2
2022/03/18 00:02:21;;;;;;;19.42;10.10;;;;;;;;;;4957273;28;20122;-74
2022/03/18 00:04:52;;;;;;;21.08;9.90;;;;;;;;;;4972229;28;20043;-73
2022/03/18 00:07:47;;;;;;;21.08;9.90;;;;;;;;;;4957506;29;20421;-74
2022/03/18 00:10:19;;;;;;;16.48;9.00;;;;;;;;;;4957410;29;20047;-74
2022/03/18 00:16:31;;;;;;;17.75;9.98;;;;;;;;;;4995767;28;20042;-71
2022/03/18 00:19:02;;;;;;;17.55;9.63;;;;;;;;;;4995520;28;20085;-71
2022/03/18 00:21:34;;;;;;;16.05;10.30;;;;;;;;;;4995816;28;20382;-71
2022/03/18 00:24:03;;;;;;;18.48;10.02;;;;;;;;;;4995656;28;20054;-71
2022/03/18 00:26:31;;;;;;;21.67;10.43;;;;;;;;;;4995406;28;20039;-71
2022/03/18 00:28:59;;;;;;;17.52;9.85;;;;;;;;;;4996102;28;20121;-71
2022/03/18 00:31:27;;;;;;;17.65;10.10;;;;;;;;;;4995650;28;20039;-72
2022/03/18 00:33:56;;;;;;;17.30;10.18;;;;;;;;;;4995499;28;20038;-72
2022/03/18 00:36:23;;;;;;;20.38;11.13;;;;;;;;;;4995489;28;20049;-71
2022/03/18 00:38:55;;;;;;;19.30;10.18;;;;;;;;;;4995758;28;20042;-71
2022/03/18 00:41:24;;;;;;;21.38;10.63;;;;;;;;;;4995577;28;20550;-71
2022/03/18 00:44:17;;;;;;;22.75;10.43;;;;;;;;;;4995709;28;20121;-71
2022/03/18 00:52:49;;;;;;;19.02;10.93;;;;;;;;;;4995140;28;20066;-71
2022/03/18 00:55:21;;;;;;;21.40;12.05;;;;;;;;;;4995625;28;20034;-71
2022/03/18 00:57:49;;;;;;;20.58;11.25;;;;;;;;;;4994678;28;20050;-71
2022/03/18 01:00:16;;;;;;;17.73;9.35;;;;;;;;;;5091722;22;20395;-71
2022/03/18 01:06:27;;;;;;;21.20;10.95;;;;;;;;;;5034387;28;20384;-71
2022/03/18 01:11:58;;;;;;;17.75;10.20;;;;;;;;;;5033782;28;20491;-71
2022/03/18 01:14:27;;;;;;;17.08;10.18;;;;;;;;;;5034721;28;20124;-71
2022/03/18 01:16:55;;;;;;;18.75;9.68;;;;;;;;;;5034295;28;20116;-71
2022/03/18 01:19:25;;;;;;;18.77;9.40;;;;;;;;;;5034481;28;20048;-71
2022/03/18 01:21:56;;;;;;;17.13;9.48;;;;;;;;;;5034359;28;20515;-71
2022/03/18 01:24:24;;;;;;;19.48;9.70;;;;;;;;;;5034302;28;20408;-71
2022/03/18 01:26:52;;;;;;;18.65;10.57;;;;;;;;;;5034304;28;20045;-71
2022/03/18 01:29:26;;;;;;;16.67;9.48;;;;;;;;;;5033990;28;20049;-71
2022/03/18 01:31:54;;;;;;;16.80;8.95;;;;;;;;;;5033992;28;20033;-71
2022/03/18 01:34:23;;;;;;;17.45;9.43;;;;;;;;;;5033927;28;20507;-72
2022/03/18 01:36:52;;;;;;;15.55;9.05;;;;;;;;;;5034068;28;20045;-71
2022/03/18 01:39:22;;;;;;;17.30;9.00;;;;;;;;;;5033761;28;20132;-71
2022/03/18 01:41:51;;;;;;;18.83;8.98;;;;;;;;;;5033930;28;20049;-71
2022/03/18 01:44:20;;;;;;;17.05;9.02;;;;;;;;;;5033581;28;20037;-71
2022/03/18 01:46:49;;;;;;;17.42;8.90;;;;;;;;;;5033816;28;20044;-71
2022/03/18 01:49:17;;;;;;;16.95;9.20;;;;;;;;;;5033864;28;20049;-71
2022/03/18 01:51:46;;;;;;;18.05;9.57;;;;;;;;;;5033695;28;20502;-71
2022/03/18 01:57:02;;;;;;;16.77;8.45;;;;;;;;;;5033562;28;20116;-71
2022/03/18 01:59:31;;;;;;;15.02;8.75;;;;;;;;;;5033500;28;20455;-71
2022/03/18 02:02:00;;;;;;;15.93;8.75;;;;;;;;;;5013491;28;20038;-71
2022/03/18 02:04:27;;;;;;;15.55;8.73;;;;;;;;;;5013608;28;20045;-70
2022/03/18 02:06:55;;;;;;;16.88;8.70;;;;;;;;;;5013578;28;20396;-71
2022/03/18 02:09:24;;;;;;;15.27;8.38;;;;;;;;;;5014095;28;20130;-71
2022/03/18 02:11:52;;;;;;;15.90;8.05;;;;;;;;;;5012462;28;20480;-71
2022/03/18 02:14:30;;;;;;;14.27;8.60;;;;;;;;;;5013446;28;20504;-71
2022/03/18 02:16:59;;;;;;;15.55;8.65;;;;;;;;;;5013964;28;20046;-71
2022/03/18 02:19:26;;;;;;;18.13;9.27;;;;;;;;;;5013546;28;20488;-71
2022/03/18 02:21:57;;;;;;;17.25;9.52;;;;;;;;;;5013613;28;20536;-71
2022/03/18 02:24:26;;;;;;;19.65;9.85;;;;;;;;;;5013784;28;20045;-71
2022/03/18 02:26:55;;;;;;;19.15;9.70;;;;;;;;;;5013498;28;20038;-70
2022/03/18 02:29:29;;;;;;;16.15;8.57;;;;;;;;;;5013879;28;20050;-71
2022/03/18 02:31:56;;;;;;;19.02;10.88;;;;;;;;;;5013195;28;20459;-71
2022/03/18 02:34:30;;;;;;;17.20;9.65;;;;;;;;;;5013387;28;20046;-71
2022/03/18 02:36:58;;;;;;;18.08;9.63;;;;;;;;;;5013220;28;20057;-71
2022/03/18 02:39:28;;;;;;;18.67;10.07;;;;;;;;;;5013292;28;20495;-71
2022/03/18 02:41:59;;;;;;;16.02;9.30;;;;;;;;;;5013636;28;20049;-71
2022/03/18 02:44:28;;;;;;;17.95;9.13;;;;;;;;;;5013033;28;20484;-71
2022/03/18 02:46:56;;;;;;;20.52;9.98;;;;;;;;;;5013417;28;20041;-71
2022/03/18 02:49:26;;;;;;;18.15;9.82;;;;;;;;;;5013251;28;20045;-71
2022/03/18 02:52:01;;;;;;;16.70;9.90;;;;;;;;;;5013352;28;20045;-71
2022/03/18 02:54:28;;;;;;;20.27;10.13;;;;;;;;;;5013125;28;20121;-71
2022/03/18 02:57:06;;;;;;;19.42;10.23;;;;;;;;;;5013256;28;20046;-71
2022/03/18 02:59:58;;;;;;;15.57;9.48;;;;;;;;;;5013215;28;20042;-71
2022/03/18 03:02:31;;;;;;;18.70;9.88;;;;;;;;;;5013126;28;20465;-71
2022/03/18 03:08:01;;;;;;;15.90;8.77;;;;;;;;;;5012731;28;20038;-71
2022/03/18 03:10:36;;;;;;;16.15;8.57;;;;;;;;;;5012872;28;20042;-71
2022/03/18 03:13:29;;;;;;;20.25;9.93;;;;;;;;;;5013565;28;20060;-71
2022/03/18 03:15:56;;;;;;;23.15;12.63;;;;;;;;;;5016771;28;20042;-71
2022/03/18 03:18:24;;;;;;;22.40;13.05;;;;;;;;;;5016665;28;20037;-72
2022/03/18 03:20:53;;;;;;;24.58;13.63;;;;;;;;;;5016860;28;20046;-71
2022/03/18 03:23:25;;;;;;;19.75;11.23;;;;;;;;;;5017029;28;20427;-71
2022/03/18 03:25:55;;;;;;;18.85;9.63;;;;;;;;;;5016994;28;20060;-71
2022/03/18 03:28:23;;;;;;;17.98;9.00;;;;;;;;;;5016602;28;20042;-71
2022/03/18 03:30:57;;;;;;;18.65;9.80;;;;;;;;;;5016488;28;20042;-71
2022/03/18 03:33:26;;;;;;;15.40;9.63;;;;;;;;;;5016588;28;20046;-71
2022/03/18 03:36:01;;;;;;;15.93;9.10;;;;;;;;;;5016555;28;20416;-71
2022/03/18 03:41:41;;;;;;;16.83;8.45;;;;;;;;;;5015534;28;20128;-71
2022/03/18 03:44:35;;;;;;;16.15;8.73;;;;;;;;;;5016230;28;20038;-72
2022/03/18 03:47:28;;;;;;;15.05;7.70;;;;;;;;;;5016163;28;20404;-71
2022/03/18 03:49:56;;;;;;;15.50;8.18;;;;;;;;;;5016417;28;20423;-71
2022/03/18 03:52:24;;;;;;;13.48;7.95;;;;;;;;;;5015930;28;20088;-71
2022/03/18 03:54:52;;;;;;;15.70;7.88;;;;;;;;;;5015964;28;20096;-71
2022/03/18 03:57:22;;;;;;;12.35;7.75;;;;;;;;;;5016237;28;20095;-72
2022/03/18 03:59:49;;;;;;;16.67;8.38;;;;;;;;;;5016961;28;20121;-72
2022/03/18 04:02:20;;;;;;;17.67;8.45;;;;;;;;;;5035067;28;20404;-71
2022/03/18 04:04:48;;;;;;;14.00;7.72;;;;;;;;;;5035843;28;20049;-71
2022/03/18 04:07:16;;;;;;;12.55;7.20;;;;;;;;;;5035232;28;20046;-71
2022/03/18 04:09:49;;;;;;;14.50;7.38;;;;;;;;;;5035467;28;20112;-71
2022/03/18 04:12:18;;;;;;;15.00;7.63;;;;;;;;;;5035626;28;20044;-71
2022/03/18 04:14:51;;;;;;;15.07;7.90;;;;;;;;;;5034737;28;20040;-71
2022/03/18 04:17:19;;;;;;;15.32;8.75;;;;;;;;;;5035418;28;20506;-71
2022/03/18 04:19:47;;;;;;;15.68;8.52;;;;;;;;;;5035799;28;20388;-71
2022/03/18 04:22:22;;;;;;;12.82;7.43;;;;;;;;;;5035516;28;20403;-71
2022/03/18 04:24:52;;;;;;;18.73;8.77;;;;;;;;;;5035095;28;20045;-71
2022/03/18 04:27:21;;;;;;;14.73;8.70;;;;;;;;;;5017675;28;20041;-71
2022/03/18 04:29:50;;;;;;;16.40;8.60;;;;;;;;;;5035309;28;20075;-71
2022/03/18 04:32:20;;;;;;;16.50;8.75;;;;;;;;;;5034955;28;20554;-71
2022/03/18 04:34:50;;;;;;;20.38;9.50;;;;;;;;;;5035294;28;20034;-71
2022/03/18 04:37:18;;;;;;;18.23;9.40;;;;;;;;;;5034993;28;20041;-72
2022/03/18 04:39:48;;;;;;;19.85;10.48;;;;;;;;;;5035321;28;20088;-72
2022/03/18 04:42:15;;;;;;;16.15;8.93;;;;;;;;;;5035365;28;20380;-72
2022/03/18 04:44:43;;;;;;;16.25;8.75;;;;;;;;;;5034530;28;20041;-72
2022/03/18 04:47:13;;;;;;;18.15;9.15;;;;;;;;;;5034749;28;20045;-72
2022/03/18 04:49:42;;;;;;;15.02;8.30;;;;;;;;;;5035410;28;20056;-71
2022/03/18 04:52:11;;;;;;;14.80;8.13;;;;;;;;;;5034657;28;20045;-71
2022/03/18 04:54:40;;;;;;;15.88;8.52;;;;;;;;;;5034841;28;20062;-71
2022/03/18 04:57:18;;;;;;;14.25;8.32;;;;;;;;;;5035351;28;20046;-71
2022/03/18 04:59:52;;;;;;;13.70;8.35;;;;;;;;;;5034264;28;20065;-72
2022/03/18 05:02:50;;;;;;;15.48;8.65;;;;;;;;;;5032480;28;20133;-71
2022/03/18 05:05:20;;;;;;;18.05;9.38;;;;;;;;;;5034077;28;20053;-71
2022/03/18 05:08:13;;;;;;;15.48;9.98;;;;;;;;;;5034318;28;20065;-71
2022/03/18 05:10:40;;;;;;;15.40;8.98;;;;;;;;;;5034168;28;20087;-71
2022/03/18 05:13:16;;;;;;;14.82;8.60;;;;;;;;;;5033716;28;20049;-71
2022/03/18 05:16:09;;;;;;;16.80;9.63;;;;;;;;;;5034301;28;20041;-71
2022/03/18 05:18:42;;;;;;;15.60;9.40;;;;;;;;;;5034128;28;20099;-71
2022/03/18 05:21:09;;;;;;;69.88;34.38;;;;;;;;;;5034102;28;20065;-70
2022/03/18 05:23:37;;;;;;;38.25;20.65;;;;;;;;;;5015448;28;20408;-71
2022/03/18 05:26:08;;;;;;;21.95;13.60;;;;;;;;;;5034733;28;20052;-72
2022/03/18 05:28:37;;;;;;;16.35;10.00;;;;;;;;;;5034473;28;20034;-71
2022/03/18 05:31:06;;;;;;;17.35;10.80;;;;;;;;;;5033529;28;20041;-71
2022/03/18 05:33:34;;;;;;;20.05;12.73;;;;;;;;;;5033729;28;20495;-71
2022/03/18 05:36:01;;;;;;;17.67;10.75;;;;;;;;;;5033129;28;20033;-71
2022/03/18 05:38:30;;;;;;;19.23;12.70;;;;;;;;;;5033777;28;20040;-71
2022/03/18 05:40:58;;;;;;;18.48;12.30;;;;;;;;;;5032822;28;20048;-72
2022/03/18 05:43:25;;;;;;;16.98;11.32;;;;;;;;;;5033413;28;20482;-72
2022/03/18 05:45:54;;;;;;;16.00;10.55;;;;;;;;;;5033787;28;20239;-74
2022/03/18 05:48:21;;;;;;;17.48;11.40;;;;;;;;;;5033687;28;20045;-71
2022/03/18 05:50:49;;;;;;;15.35;9.13;;;;;;;;;;5033380;28;20034;-72
2022/03/18 05:53:18;;;;;;;14.70;9.60;;;;;;;;;;5033244;28;20044;-72
2022/03/18 05:58:32;;;;;;;13.55;8.63;;;;;;;;;;5022404;28;20558;-72
2022/03/18 06:00:59;;;;;;;12.55;8.45;;;;;;;;;;5032975;28;20474;-72
2022/03/18 06:03:27;;;;;;;15.25;9.40;;;;;;;;;;5033788;28;20124;-72
2022/03/18 06:05:55;;;;;;;14.15;8.63;;;;;;;;;;5033234;28;20041;-71
2022/03/18 06:11:48;;;;;;;13.40;9.63;;;;;;;;;;5033295;28;20550;-72
2022/03/18 06:18:16;;;;;;;10.68;8.23;;;;;;;;;;5032391;28;20068;-72
2022/03/18 06:21:01;;;;;;;10.52;7.72;;;;;;;;;;5032884;28;20045;-73
2022/03/18 06:23:56;;;;;;;10.10;7.57;;;;;;;;;;5032345;28;20112;-72
2022/03/18 06:26:24;;;;;;;10.50;7.40;;;;;;;;;;5032992;28;20120;-72
2022/03/18 06:28:53;;;;;;;10.23;7.72;;;;;;;;;;5015679;28;20091;-71
2022/03/18 06:31:22;;;;;;;11.75;7.78;;;;;;;;;;5032728;28;20041;-72
2022/03/18 06:33:50;;;;;;;10.77;7.97;;;;;;;;;;5033001;28;20045;-72
2022/03/18 06:36:18;;;;;;;10.43;8.23;;;;;;;;;;5033689;28;20391;-73
2022/03/18 06:38:46;;;;;;;11.45;8.30;;;;;;;;;;5031429;28;20037;-72
2022/03/18 06:41:15;;;;;;;11.20;8.25;;;;;;;;;;5038913;28;20048;-72
2022/03/18 06:43:43;;;;;;;10.98;8.32;;;;;;;;;;5035437;28;20061;-71
2022/03/18 06:46:11;;;;;;;11.48;8.20;;;;;;;;;;5052622;28;20398;-70
2022/03/18 06:48:42;;;;;;;11.70;9.13;;;;;;;;;;5055881;28;20495;-71
2022/03/18 06:51:10;;;;;;;11.10;8.45;;;;;;;;;;5057129;28;20503;-71
2022/03/18 06:53:38;;;;;;;10.73;8.68;;;;;;;;;;5057091;28;20091;-71
2022/03/18 06:56:08;;;;;;;15.40;9.95;;;;;;;;;;5057326;28;20053;-70
2022/03/18 06:58:36;;;;;;;14.85;10.75;;;;;;;;;;5056913;28;20553;-70
2022/03/18 07:01:03;;;;;;;15.13;10.50;;;;;;;;;;5056168;28;20061;-70
2022/03/18 07:03:32;;;;;;;13.80;9.43;;;;;;;;;;5056628;28;20048;-71
2022/03/18 07:06:02;;;;;;;12.80;9.05;;;;;;;;;;5039054;28;20044;-65
2022/03/18 07:08:33;;;;;;;17.58;11.57;;;;;;;;;;5056569;28;20045;-66
2022/03/18 07:11:02;;;;;;;12.00;9.02;;;;;;;;;;5016825;28;20502;-65
2022/03/18 07:13:30;;;;;;;11.23;8.35;;;;;;;;;;5016893;28;20049;-66
2022/03/18 07:17:55;;;;;;;13.05;9.32;;;;;;;;;;5016677;28;20476;-66
2022/03/18 07:18:47;;;;;;;15.95;9.57;;;;;;;;;;5016755;28;20100;-66
2022/03/18 07:21:14;;;;;;;14.10;7.57;;;;;;;;;;5016695;28;20106;-66
2022/03/18 07:23:43;;;;;;;9.95;8.10;;;;;;;;;;5016573;28;20042;-66
2022/03/18 07:26:12;;;;;;;9.18;7.05;;;;;;;;;;5034387;28;20033;-66
2022/03/18 07:28:39;;;;;;;13.57;9.27;;;;;;;;;;5035794;28;20044;-65
2022/03/18 07:31:07;;;;;;;10.20;7.43;;;;;;;;;;5035696;28;20034;-65
2022/03/18 07:33:35;;;;;;;9.35;7.13;;;;;;;;;;5035992;28;20104;-66
2022/03/18 07:36:05;;;;;;;10.77;7.90;;;;;;;;;;5036011;28;20051;-66
2022/03/18 07:38:33;;;;;;;9.93;6.45;;;;;;;;;;5036191;28;20046;-64
2022/03/18 07:41:05;;;;;;;9.32;6.35;;;;;;;;;;5036295;28;20038;-64
2022/03/18 07:43:35;;;;;;;11.02;6.18;;;;;;;;;;5036375;28;20460;-64
2022/03/18 07:46:03;;;;;;;9.55;6.57;;;;;;;;;;5034536;28;20042;-64
2022/03/18 07:48:39;;;;;;;10.05;6.05;;;;;;;;;;5034683;28;20052;-69
2022/03/18 07:51:09;;;;;;;10.50;6.15;;;;;;;;;;5035810;28;20519;-66
2022/03/18 07:53:37;;;;;;;10.80;5.85;;;;;;;;;;5035748;28;20482;-67
2022/03/18 07:56:05;;;;;;;10.02;5.88;;;;;;;;;;5036011;28;20052;-66
2022/03/18 07:58:32;;;;;;;7.70;5.68;;;;;;;;;;5035790;28;20498;-67
2022/03/18 08:01:00;;;;;;;10.70;5.45;;;;;;;;;;5035019;28;20053;-67
2022/03/18 08:03:29;;;;;;;10.73;6.85;;;;;;;;;;5035633;28;20100;-67
2022/03/18 08:05:56;;;;;;;9.27;6.05;;;;;;;;;;5035578;28;20076;-67
2022/03/18 08:08:25;;;;;;;10.35;5.90;;;;;;;;;;5035590;28;20052;-68
2022/03/18 08:10:52;;;;;;;9.18;5.93;;;;;;;;;;5035755;28;20038;-67
2022/03/18 08:13:22;;;;;;;15.90;6.45;;;;;;;;;;5035527;28;20042;-67
2022/03/18 08:15:50;;;;;;;12.52;6.90;;;;;;;;;;5016890;28;20389;-67
2022/03/18 08:18:54;;;;;;;9.18;5.82;;;;;;;;;;5104979;22;20016;-65
2022/03/18 08:21:51;;;;;;;11.40;5.72;;;;;;;;;;5035214;28;20065;-67
2022/03/18 08:24:19;;;;;;;9.13;5.28;;;;;;;;;;5034415;28;20084;-67
2022/03/18 08:26:47;;;;;;;10.68;6.15;;;;;;;;;;5034835;28;20042;-68
2022/03/18 08:29:14;;;;;;;11.25;5.63;;;;;;;;;;5033584;28;20420;-68
2022/03/18 08:31:42;;;;;;;9.43;5.80;;;;;;;;;;5035089;28;20053;-67
2022/03/18 08:34:09;;;;;;;9.65;6.00;;;;;;;;;;5034742;28;20041;-67
2022/03/18 08:36:39;;;;;;;8.57;5.70;;;;;;;;;;5047091;28;20046;-66
2022/03/18 08:39:07;;;;;;;10.30;6.28;;;;;;;;;;5034809;28;20047;-68
2022/03/18 08:41:36;;;;;;;10.52;6.07;;;;;;;;;;5034364;28;20050;-69
2022/03/18 08:44:05;;;;;;;8.38;5.35;;;;;;;;;;5034458;28;20042;-68
2022/03/18 08:46:34;;;;;;;8.77;5.88;;;;;;;;;;5035108;28;20044;-67
2022/03/18 08:49:06;;;;;;;7.30;4.28;;;;;;;;;;5034291;28;20044;-67
2022/03/18 08:51:33;;;;;;;11.82;5.35;;;;;;;;;;5134289;23;20143;-73
2022/03/18 08:54:26;;;;;;;8.82;5.25;;;;;;;;;;5092859;28;20073;-72
2022/03/18 08:56:53;;;;;;;9.00;5.32;;;;;;;;;;5092840;28;20055;-73
2022/03/18 08:59:23;;;;;;;8.38;4.68;;;;;;;;;;5062862;28;20051;-73
2022/03/18 09:01:52;;;;;;;10.20;5.70;;;;;;;;;;5060234;28;20041;-74
2022/03/18 09:04:20;;;;;;;11.07;5.50;;;;;;;;;;5061153;28;20033;-73
2022/03/18 09:06:48;;;;;;;10.23;5.63;;;;;;;;;;5069408;28;20064;-73
2022/03/18 09:09:16;;;;;;;9.45;5.45;;;;;;;;;;5074476;28;20479;-73
2022/03/18 09:11:46;;;;;;;9.32;5.13;;;;;;;;;;5073205;28;20539;-73
2022/03/18 09:14:14;;;;;;;9.05;5.78;;;;;;;;;;5074187;28;20111;-73
2022/03/18 09:16:42;;;;;;;8.10;4.68;;;;;;;;;;5074026;28;20506;-73
2022/03/18 09:19:13;;;;;;;8.15;5.13;;;;;;;;;;5074225;28;20051;-73
2022/03/18 09:21:42;;;;;;;8.57;5.55;;;;;;;;;;5073626;28;20033;-73
2022/03/18 09:24:10;;;;;;;10.95;6.35;;;;;;;;;;5074393;28;20437;-72
2022/03/18 09:26:41;;;;;;;6.28;4.35;;;;;;;;;;5074354;28;20047;-73
2022/03/18 09:29:17;;;;;;;8.10;5.10;;;;;;;;;;5074150;28;20522;-72
2022/03/18 09:31:45;;;;;;;9.60;5.23;;;;;;;;;;5073848;28;20052;-73
2022/03/18 09:34:24;;;;;;;10.65;5.25;;;;;;;;;;5073826;28;20375;-73
2022/03/18 09:36:54;;;;;;;8.75;6.07;;;;;;;;;;5071314;28;20479;-67
2022/03/18 09:39:23;;;;;;;8.75;5.38;;;;;;;;;;5061976;28;20474;-67
2022/03/18 09:41:51;;;;;;;9.77;5.43;;;;;;;;;;5060606;28;20040;-68
2022/03/18 09:44:20;;;;;;;7.28;5.28;;;;;;;;;;5061468;28;20044;-67
2022/03/18 09:46:48;;;;;;;9.65;5.53;;;;;;;;;;5062815;28;20371;-67
2022/03/18 09:49:17;;;;;;;9.68;5.75;;;;;;;;;;5062537;28;20037;-67
2022/03/18 09:51:48;;;;;;;9.57;5.63;;;;;;;;;;5066828;28;20063;-67
2022/03/18 09:54:27;;;;;;;16.77;10.70;;;;;;;;;;5090627;28;20409;-68
2022/03/18 09:56:55;;;;;;;9.32;6.07;;;;;;;;;;5093494;28;20048;-67
2022/03/18 09:59:28;;;;;;;8.52;5.63;;;;;;;;;;5094715;28;20043;-67
2022/03/18 10:05:24;;;;;;;9.75;6.25;;;;;;;;;;5052223;28;20559;-68
2022/03/18 10:08:21;;;;;;;10.15;6.45;;;;;;;;;;5093051;28;20044;-67
2022/03/18 10:10:53;;;;;;;9.52;6.03;;;;;;;;;;5093497;28;20486;-68
2022/03/18 10:13:21;;;;;;;8.82;5.72;;;;;;;;;;5090998;28;20036;-67
2022/03/18 10:16:14;;;;;;;8.80;5.60;;;;;;;;;;5078407;28;20047;-67
2022/03/18 10:18:49;;;;;;;10.32;6.15;;;;;;;;;;5093542;28;20044;-67
2022/03/18 10:21:19;;;;;;;10.05;6.07;;;;;;;;;;5093548;28;20123;-67
2022/03/18 10:23:46;;;;;;;7.30;4.75;;;;;;;;;;5088418;28;20036;-67
2022/03/18 10:26:15;;;;;;;7.78;5.07;;;;;;;;;;5072208;28;20036;-68
2022/03/18 10:28:47;;;;;;;10.68;5.25;;;;;;;;;;5089094;28;20090;-67
2022/03/18 10:31:19;;;;;;;7.25;4.60;;;;;;;;;;5093092;28;20070;-67
2022/03/18 10:39:32;;;;;;;10.25;5.47;;;;;;;;;;5096936;28;20048;-67
2022/03/18 10:42:02;;;;;;;8.52;4.40;;;;;;;;;;5093583;28;20040;-68
2022/03/18 10:44:52;;;;;;;8.07;4.78;;;;;;;;;;5075373;28;20076;-68
2022/03/18 10:47:32;;;;;;;7.43;4.78;;;;;;;;;;5093169;28;20101;-67
2022/03/18 10:50:11;;;;;;;8.05;5.25;;;;;;;;;;5070989;28;20044;-67
2022/03/18 11:00:06;;;;;;;9.85;5.15;;;;;;;;;;5060821;28;20386;-67
2022/03/18 11:02:40;;;;;;;7.00;5.20;;;;;;;;;;5056536;28;20457;-67
2022/03/18 11:05:09;;;;;;;8.10;5.30;;;;;;;;;;5052893;28;20495;-67
2022/03/18 11:07:43;;;;;;;8.05;5.10;;;;;;;;;;5052625;28;20048;-67
2022/03/18 11:13:03;;;;;;;7.15;4.93;;;;;;;;;;5052757;28;20128;-67
2022/03/18 11:15:33;;;;;;;8.80;5.57;;;;;;;;;;5052632;28;20075;-67
2022/03/18 11:18:06;;;;;;;12.32;5.43;;;;;;;;;;5052646;28;20116;-67
2022/03/18 11:20:45;;;;;;;8.20;5.30;;;;;;;;;;5052856;28;20041;-67
2022/03/18 11:23:17;;;;;;;9.40;5.53;;;;;;;;;;5052521;28;20174;-67
2022/03/18 11:25:49;;;;;;;10.38;5.60;;;;;;;;;;5052865;28;20060;-67
2022/03/18 11:28:22;;;;;;;7.72;5.22;;;;;;;;;;5052559;28;20495;-67
2022/03/18 11:31:09;;;;;;;9.18;5.18;;;;;;;;;;5052829;28;20048;-67
2022/03/18 11:33:40;;;;;;;8.07;5.13;;;;;;;;;;5053167;28;20049;-68
2022/03/18 11:36:11;;;;;;;7.75;5.65;;;;;;;;;;5055652;28;20043;-67
2022/03/18 11:38:51;;;;;;;9.68;5.95;;;;;;;;;;5055906;28;20045;-67
2022/03/18 11:41:21;;;;;;;8.85;5.65;;;;;;;;;;5056026;28;20083;-67
2022/03/18 11:43:51;;;;;;;8.95;4.90;;;;;;;;;;5056071;28;20047;-67
2022/03/18 11:46:23;;;;;;;7.82;5.20;;;;;;;;;;5056281;28;20108;-67
2022/03/18 11:49:05;;;;;;;11.85;5.43;;;;;;;;;;5056685;28;20489;-67
2022/03/18 11:51:32;;;;;;;7.93;5.28;;;;;;;;;;5055357;28;20080;-67
2022/03/18 11:54:10;;;;;;;7.75;5.15;;;;;;;;;;5055671;28;20043;-67
2022/03/18 11:56:48;;;;;;;10.55;5.80;;;;;;;;;;5055934;28;20037;-67
2022/03/18 11:59:31;;;;;;;8.45;5.90;;;;;;;;;;5055919;28;20090;-67
2022/03/18 12:02:06;;;;;;;7.53;5.60;;;;;;;;;;5056049;28;20045;-67
2022/03/18 12:04:39;;;;;;;8.77;5.75;;;;;;;;;;5058275;28;20075;-68
2022/03/18 12:07:20;;;;;;;7.90;5.15;;;;;;;;;;5064612;28;20044;-67
2022/03/18 12:09:47;;;;;;;7.95;5.35;;;;;;;;;;5058566;28;20047;-68
2022/03/18 12:12:16;;;;;;;11.88;6.70;;;;;;;;;;5067564;28;20503;-68
2022/03/18 12:14:45;;;;;;;9.55;5.70;;;;;;;;;;5072108;28;20048;-68
2022/03/18 12:17:14;;;;;;;7.47;4.88;;;;;;;;;;5075198;28;20048;-69
2022/03/18 12:20:02;;;;;;;11.32;5.53;;;;;;;;;;5075297;28;20120;-68
2022/03/18 12:22:36;;;;;;;10.57;5.68;;;;;;;;;;5075155;28;20076;-68
2022/03/18 12:25:10;;;;;;;10.77;6.05;;;;;;;;;;5075589;28;20040;-68
2022/03/18 12:27:41;;;;;;;12.60;6.25;;;;;;;;;;5075228;28;20098;-68
2022/03/18 12:30:12;;;;;;;10.07;6.30;;;;;;;;;;5075244;28;20061;-68
2022/03/18 12:32:48;;;;;;;7.97;5.40;;;;;;;;;;5075206;28;20119;-68
2022/03/18 12:35:29;;;;;;;10.30;6.85;;;;;;;;;;5074304;28;20452;-68
2022/03/18 12:38:06;;;;;;;11.45;5.65;;;;;;;;;;5071154;28;20484;-67
2022/03/18 12:40:34;;;;;;;10.40;5.10;;;;;;;;;;5060940;28;20119;-68
2022/03/18 12:43:03;;;;;;;8.05;5.65;;;;;;;;;;5074288;28;20040;-69
2022/03/18 12:45:32;;;;;;;10.68;5.93;;;;;;;;;;5074093;28;20032;-67
2022/03/18 12:48:02;;;;;;;7.70;5.38;;;;;;;;;;5074731;28;20123;-67
2022/03/18 12:50:34;;;;;;;8.27;5.20;;;;;;;;;;5074670;28;20037;-67
2022/03/18 12:53:09;;;;;;;9.10;5.82;;;;;;;;;;5074311;28;20095;-67
2022/03/18 12:55:40;;;;;;;7.75;5.22;;;;;;;;;;5072776;28;20033;-67
2022/03/18 12:58:26;;;;;;;10.50;6.25;;;;;;;;;;5055282;28;20055;-67
2022/03/18 13:00:56;;;;;;;8.18;5.38;;;;;;;;;;5074351;28;20052;-67
2022/03/18 13:03:25;;;;;;;17.17;11.07;;;;;;;;;;5074573;28;20036;-67
2022/03/18 13:05:55;;;;;;;9.43;6.20;;;;;;;;;;5078881;28;20045;-67
2022/03/18 13:08:23;;;;;;;10.30;6.22;;;;;;;;;;5079262;28;20036;-67
2022/03/18 13:10:56;;;;;;;8.52;5.93;;;;;;;;;;5084991;28;20040;-68
2022/03/18 13:13:26;;;;;;;8.70;5.45;;;;;;;;;;5094297;28;20150;-67
2022/03/18 13:16:01;;;;;;;9.75;5.68;;;;;;;;;;5094587;28;20040;-67
2022/03/18 13:18:34;;;;;;;8.68;5.20;;;;;;;;;;5094134;28;20044;-67
2022/03/18 13:21:11;;;;;;;7.70;5.32;;;;;;;;;;5094226;28;20501;-67
2022/03/18 13:24:15;;;;;;;9.35;6.47;;;;;;;;;;5094263;28;20510;-68
2022/03/18 13:32:50;;;;;;;7.55;5.07;;;;;;;;;;5094157;28;20090;-67
2022/03/18 13:35:22;;;;;;;15.73;7.85;;;;;;;;;;5093939;28;20036;-68
2022/03/18 13:38:09;;;;;;;16.17;10.13;;;;;;;;;;5094291;28;20086;-68
2022/03/18 13:40:41;;;;;;;13.93;8.43;;;;;;;;;;5094386;28;20040;-66
2022/03/18 13:43:09;;;;;;;9.30;5.88;;;;;;;;;;5094051;28;20402;-67
2022/03/18 13:45:42;;;;;;;11.00;5.32;;;;;;;;;;5093906;28;20498;-66
2022/03/18 13:48:24;;;;;;;9.15;5.63;;;;;;;;;;5094268;28;20072;-66
2022/03/18 13:50:53;;;;;;;8.15;5.82;;;;;;;;;;5093663;28;20078;-66
2022/03/18 13:53:26;;;;;;;9.02;6.22;;;;;;;;;;5094121;28;20041;-67
2022/03/18 13:55:54;;;;;;;8.15;5.70;;;;;;;;;;5093884;28;20078;-66
2022/03/18 13:58:30;;;;;;;10.55;5.30;;;;;;;;;;5081216;28;20075;-66
2022/03/18 14:01:17;;;;;;;11.32;6.50;;;;;;;;;;5094039;28;20043;-66
2022/03/18 14:03:49;;;;;;;9.95;6.20;;;;;;;;;;5093528;28;20115;-66
2022/03/18 14:06:17;;;;;;;8.70;6.13;;;;;;;;;;5092992;28;20406;-66
2022/03/18 14:08:48;;;;;;;8.20;5.68;;;;;;;;;;5093613;28;20071;-67
2022/03/18 14:14:25;;;;;;;9.05;5.35;;;;;;;;;;5093812;28;20052;-66
2022/03/18 14:17:11;;;;;;;18.48;6.80;;;;;;;;;;5087078;28;20063;-67
2022/03/18 14:20:02;;;;;;;9.98;5.75;;;;;;;;;;5073522;28;20048;-68
2022/03/18 14:22:33;;;;;;;9.25;6.07;;;;;;;;;;5073085;28;20063;-67
2022/03/18 14:25:09;;;;;;;9.45;5.88;;;;;;;;;;5073229;28;20479;-67
2022/03/18 14:27:38;;;;;;;10.40;6.57;;;;;;;;;;5073406;28;20053;-67
2022/03/18 14:30:12;;;;;;;13.48;6.72;;;;;;;;;;5073444;28;20036;-67
2022/03/18 14:32:46;;;;;;;10.70;6.35;;;;;;;;;;5073470;28;20510;-67
2022/03/18 14:35:26;;;;;;;12.27;6.90;;;;;;;;;;5108753;22;20049;-66
2022/03/18 14:37:54;;;;;;;11.73;5.75;;;;;;;;;;5052531;28;20111;-66
2022/03/18 14:40:22;;;;;;;19.13;7.95;;;;;;;;;;5051959;28;20037;-66
2022/03/18 14:42:50;;;;;;;9.40;5.72;;;;;;;;;;5052936;28;20155;-66
2022/03/18 14:45:18;;;;;;;12.68;6.32;;;;;;;;;;5035675;28;20072;-66
2022/03/18 14:47:47;;;;;;;8.32;5.60;;;;;;;;;;5052041;28;20114;-66
2022/03/18 14:50:15;;;;;;;8.43;5.43;;;;;;;;;;5052381;28;20044;-66
2022/03/18 14:52:43;;;;;;;10.55;5.60;;;;;;;;;;5053469;28;20041;-66
2022/03/18 14:57:57;;;;;;;8.98;5.25;;;;;;;;;;5052689;28;20041;-66
2022/03/18 15:00:26;;;;;;;8.50;5.57;;;;;;;;;;5052510;28;20048;-67
2022/03/18 15:03:19;;;;;;;10.27;5.55;;;;;;;;;;5052700;28;20071;-67
2022/03/18 15:06:12;;;;;;;10.38;5.60;;;;;;;;;;5052723;28;20055;-67
2022/03/18 15:08:46;;;;;;;11.48;5.60;;;;;;;;;;5050091;28;20045;-72
2022/03/18 15:14:25;;;;;;;8.90;5.30;;;;;;;;;;5055697;28;20041;-73
2022/03/18 15:17:17;;;;;;;8.98;5.15;;;;;;;;;;5055598;28;20032;-73
2022/03/18 15:19:46;;;;;;;9.63;5.20;;;;;;;;;;5055570;28;20418;-73
2022/03/18 15:22:16;;;;;;;12.05;5.90;;;;;;;;;;5056265;28;20098;-74
2022/03/18 15:24:46;;;;;;;8.05;4.95;;;;;;;;;;5056682;28;20045;-74
2022/03/18 15:27:15;;;;;;;9.27;5.07;;;;;;;;;;5056153;28;20074;-74
2022/03/18 15:29:44;;;;;;;11.52;5.28;;;;;;;;;;5056470;28;20112;-74
2022/03/18 15:32:13;;;;;;;9.85;6.07;;;;;;;;;;5056327;28;20047;-73
2022/03/18 15:34:42;;;;;;;9.82;6.22;;;;;;;;;;5056347;28;20060;-73
2022/03/18 15:40:45;;;;;;;8.68;5.72;;;;;;;;;;5051055;28;20395;-70
2022/03/18 15:43:29;;;;;;;9.32;5.28;;;;;;;;;;5055665;28;20037;-69
2022/03/18 15:45:57;;;;;;;10.90;6.22;;;;;;;;;;5055873;28;20040;-69
2022/03/18 15:48:26;;;;;;;9.85;5.45;;;;;;;;;;5056226;28;20044;-69
2022/03/18 15:50:59;;;;;;;9.05;5.25;;;;;;;;;;5055938;28;20033;-69
2022/03/18 15:53:29;;;;;;;15.75;7.10;;;;;;;;;;5055826;28;20073;-69
2022/03/18 15:55:58;;;;;;;10.18;5.80;;;;;;;;;;5055901;28;20499;-70
2022/03/18 15:58:26;;;;;;;7.80;4.78;;;;;;;;;;5056068;28;20037;-69
2022/03/18 16:00:54;;;;;;;10.45;5.53;;;;;;;;;;5055561;28;20068;-69
2022/03/18 16:03:22;;;;;;;10.30;6.05;;;;;;;;;;5053523;28;20039;-69
2022/03/18 16:05:54;;;;;;;8.85;5.40;;;;;;;;;;5055079;28;20049;-69
2022/03/18 16:08:31;;;;;;;12.38;6.28;;;;;;;;;;5046784;28;20107;-69
2022/03/18 16:10:59;;;;;;;11.65;6.43;;;;;;;;;;5035473;28;20116;-70
2022/03/18 16:13:29;;;;;;;16.52;8.85;;;;;;;;;;5035334;28;20061;-69
2022/03/18 16:15:59;;;;;;;20.50;11.27;;;;;;;;;;5035735;28;20112;-69